createdAt,value
2022-07-27T00:00:08.904Z,66.50
2022-07-27T00:01:08.870Z,65.99
2022-07-27T00:02:09.025Z,65.89
2022-07-27T00:03:08.751Z,66.19
2022-07-27T00:04:08.815Z,66.39
2022-07-27T00:05:08.742Z,66.39
2022-07-27T00:06:08.814Z,66.33
2022-07-27T00:07:08.711Z,66.42
2022-07-27T00:08:08.694Z,66.63
2022-07-27T00:09:09.168Z,66.33
2022-07-27T00:10:08.703Z,66.22
2022-07-27T00:11:08.671Z,66.63
2022-07-27T00:12:08.664Z,67.03
2022-07-27T00:13:08.655Z,67.13
2022-07-27T00:14:08.651Z,66.42
2022-07-27T00:15:08.716Z,66.83
2022-07-27T00:16:08.656Z,66.02
2022-07-27T00:17:08.619Z,66.02
2022-07-27T00:18:08.635Z,65.32
2022-07-27T00:19:09.617Z,65.72
2022-07-27T00:20:08.579Z,66.02
2022-07-27T00:21:08.575Z,65.32
2022-07-27T00:22:08.615Z,65.82
2022-07-27T00:23:08.538Z,65.82
2022-07-27T00:24:08.671Z,65.72
2022-07-27T00:25:08.620Z,65.72
2022-07-27T00:26:08.548Z,66.63
2022-07-27T00:27:08.507Z,65.82
2022-07-27T00:28:08.568Z,65.25
2022-07-27T00:29:08.923Z,65.55
2022-07-27T00:30:08.501Z,65.65
2022-07-27T00:31:08.520Z,65.35
2022-07-27T00:32:12.586Z,65.45
2022-07-27T00:33:08.438Z,65.25
2022-07-27T00:34:08.490Z,65.75
2022-07-27T00:35:08.497Z,65.85
2022-07-27T00:36:08.429Z,65.85
2022-07-27T00:37:08.392Z,65.95
2022-07-27T00:38:08.430Z,66.05
2022-07-27T00:39:08.676Z,65.35
2022-07-27T00:40:08.450Z,66.16
2022-07-27T00:41:08.363Z,66.76
2022-07-27T00:42:08.353Z,65.85
2022-07-27T00:43:08.414Z,65.15
2022-07-27T00:44:08.372Z,65.35
2022-07-27T00:45:08.317Z,66.76
2022-07-27T00:46:08.312Z,67.27
2022-07-27T00:47:08.327Z,67.27
2022-07-27T00:48:08.343Z,66.86
2022-07-27T00:49:08.821Z,66.86
2022-07-27T00:50:08.421Z,66.86
2022-07-27T00:51:08.338Z,66.46
2022-07-27T00:52:08.254Z,65.95
2022-07-27T00:53:08.234Z,65.05
2022-07-27T00:54:10.056Z,64.87
2022-07-27T00:55:08.297Z,65.55
2022-07-27T00:56:08.236Z,65.99
2022-07-27T00:57:08.278Z,65.88
2022-07-27T00:58:08.208Z,65.68
2022-07-27T00:59:08.442Z,66.39
2022-07-27T01:00:08.148Z,66.59
2022-07-27T01:01:08.254Z,66.49
2022-07-27T01:02:11.285Z,66.49
2022-07-27T01:03:09.046Z,66.39
2022-07-27T01:04:08.308Z,66.39
2022-07-27T01:05:08.234Z,65.99
2022-07-27T01:06:08.152Z,65.88
2022-07-27T01:07:08.101Z,65.78
2022-07-27T01:08:08.108Z,66.19
2022-07-27T01:09:08.380Z,66.89
2022-07-27T01:10:08.151Z,66.89
2022-07-27T01:11:08.031Z,66.59
2022-07-27T01:12:08.525Z,66.19
2022-07-27T01:13:12.465Z,66.39
2022-07-27T01:14:08.997Z,66.39
2022-07-27T01:15:08.049Z,66.19
2022-07-27T01:16:08.119Z,65.88
2022-07-27T01:17:08.011Z,65.78
2022-07-27T01:18:08.052Z,65.18
2022-07-27T01:19:07.951Z,65.28
2022-07-27T01:20:07.993Z,65.58
2022-07-27T01:21:07.962Z,65.48
2022-07-27T01:22:07.924Z,65.21
2022-07-27T01:23:08.002Z,65.01
2022-07-27T01:24:08.084Z,65.61
2022-07-27T01:25:07.968Z,66.72
2022-07-27T01:26:07.883Z,66.42
2022-07-27T01:27:07.983Z,66.62
2022-07-27T01:28:07.854Z,66.82
2022-07-27T01:29:08.126Z,66.82
2022-07-27T01:30:07.930Z,66.82
2022-07-27T01:31:07.843Z,67.13
2022-07-27T01:32:07.864Z,66.32
2022-07-27T01:33:07.785Z,65.71
2022-07-27T01:34:07.887Z,66.52
2022-07-27T01:35:07.831Z,66.82
2022-07-27T01:36:07.750Z,67.02
2022-07-27T01:37:07.790Z,67.13
2022-07-27T01:38:07.872Z,67.43
2022-07-27T01:39:09.076Z,67.02
2022-07-27T01:40:07.889Z,67.23
2022-07-27T01:41:07.755Z,67.83
2022-07-27T01:42:07.795Z,68.24
2022-07-27T01:43:07.707Z,67.43
2022-07-27T01:44:07.690Z,67.53
2022-07-27T01:45:07.806Z,67.46
2022-07-27T01:46:07.752Z,67.76
2022-07-27T01:47:14.306Z,67.56
2022-07-27T01:48:08.629Z,67.16
2022-07-27T01:49:07.798Z,67.26
2022-07-27T01:50:07.678Z,67.86
2022-07-27T01:51:07.640Z,67.97
2022-07-27T01:52:07.573Z,68.17
2022-07-27T01:53:09.257Z,67.56
2022-07-27T01:54:07.556Z,67.26
2022-07-27T01:55:07.615Z,68.17
2022-07-27T01:56:10.323Z,67.39
2022-07-27T01:57:07.576Z,67.49
2022-07-27T01:58:07.533Z,67.49
2022-07-27T01:59:07.642Z,66.89
2022-07-27T02:00:08.543Z,67.49
2022-07-27T02:01:07.559Z,67.49
2022-07-27T02:02:07.610Z,67.60
2022-07-27T02:03:07.526Z,67.80
2022-07-27T02:04:07.829Z,67.90
2022-07-27T02:05:07.606Z,68.20
2022-07-27T02:06:07.472Z,68.00
2022-07-27T02:07:07.513Z,68.40
2022-07-27T02:08:07.508Z,68.40
2022-07-27T02:09:07.385Z,68.30
2022-07-27T02:10:07.414Z,68.54
2022-07-27T02:11:07.439Z,68.84
2022-07-27T02:12:07.366Z,68.94
2022-07-27T02:13:21.959Z,68.84
2022-07-27T02:14:08.336Z,69.04
2022-07-27T02:15:07.453Z,69.04
2022-07-27T02:16:08.723Z,69.45
2022-07-27T02:17:08.306Z,69.24
2022-07-27T02:18:33.643Z,69.34
2022-07-27T02:19:08.888Z,69.55
2022-07-27T02:20:07.306Z,69.14
2022-07-27T02:21:07.339Z,69.14
2022-07-27T02:22:08.080Z,69.24
2022-07-27T02:23:07.295Z,69.04
2022-07-27T02:24:07.259Z,69.14
2022-07-27T02:25:07.262Z,69.45
2022-07-27T02:26:07.230Z,69.55
2022-07-27T02:27:07.188Z,69.55
2022-07-27T02:28:07.304Z,69.55
2022-07-27T02:29:07.237Z,69.95
2022-07-27T02:30:07.291Z,70.36
2022-07-27T02:31:07.218Z,70.56
2022-07-27T02:32:07.264Z,70.56
2022-07-27T02:33:07.280Z,70.46
2022-07-27T02:34:07.150Z,70.66
2022-07-27T02:35:18.906Z,70.66
2022-07-27T02:36:08.154Z,70.25
2022-07-27T02:37:07.243Z,70.29
2022-07-27T02:38:07.116Z,70.39
2022-07-27T02:39:07.072Z,70.29
2022-07-27T02:40:07.198Z,70.39
2022-07-27T02:41:07.167Z,70.49
2022-07-27T02:42:07.115Z,70.49
2022-07-27T02:43:07.133Z,70.69
2022-07-27T02:44:07.081Z,70.79
2022-07-27T02:45:07.095Z,70.89
2022-07-27T02:46:07.094Z,71.20
2022-07-27T02:47:07.059Z,71.09
2022-07-27T02:48:08.334Z,71.09
2022-07-27T02:49:07.133Z,71.40
2022-07-27T02:50:07.031Z,71.60
2022-07-27T02:51:07.038Z,71.50
2022-07-27T02:52:06.975Z,71.60
2022-07-27T02:53:06.949Z,71.70
2022-07-27T02:54:07.124Z,71.40
2022-07-27T02:55:07.012Z,71.60
2022-07-27T02:56:06.981Z,71.60
2022-07-27T02:57:06.973Z,71.60
2022-07-27T02:58:06.922Z,71.50
2022-07-27T02:59:06.939Z,71.50
2022-07-27T03:00:06.942Z,71.60
2022-07-27T03:01:07.142Z,71.50
2022-07-27T03:02:06.830Z,71.40
2022-07-27T03:03:07.009Z,71.50
2022-07-27T03:04:07.240Z,71.60
2022-07-27T03:05:06.824Z,71.91
2022-07-27T03:06:06.855Z,71.91
2022-07-27T03:07:06.860Z,71.70
2022-07-27T03:08:06.891Z,71.60
2022-07-27T03:09:06.742Z,71.64
2022-07-27T03:10:06.780Z,71.33
2022-07-27T03:11:06.820Z,71.23
2022-07-27T03:12:06.790Z,71.53
2022-07-27T03:13:06.828Z,71.84
2022-07-27T03:14:06.713Z,71.84
2022-07-27T03:15:06.741Z,71.53
2022-07-27T03:16:06.901Z,71.94
2022-07-27T03:17:06.654Z,71.94
2022-07-27T03:18:06.754Z,71.84
2022-07-27T03:19:06.671Z,72.24
2022-07-27T03:20:08.069Z,72.34
2022-07-27T03:21:06.683Z,72.24
2022-07-27T03:22:06.684Z,72.24
2022-07-27T03:23:06.646Z,72.34
2022-07-27T03:24:06.633Z,72.55
2022-07-27T03:25:06.709Z,72.75
2022-07-27T03:26:06.672Z,72.75
2022-07-27T03:27:06.625Z,72.85
2022-07-27T03:28:06.653Z,72.95
2022-07-27T03:29:06.596Z,73.25
2022-07-27T03:30:06.537Z,73.49
2022-07-27T03:31:06.775Z,73.59
2022-07-27T03:32:06.546Z,73.80
2022-07-27T03:33:06.562Z,74.00
2022-07-27T03:34:06.563Z,74.10
2022-07-27T03:35:06.520Z,74.20
2022-07-27T03:36:06.579Z,74.20
2022-07-27T03:37:06.487Z,74.33
2022-07-27T03:38:06.507Z,74.44
2022-07-27T03:39:06.491Z,74.44
2022-07-27T03:40:06.455Z,74.44
2022-07-27T03:41:06.514Z,74.44
2022-07-27T03:42:06.481Z,74.54
2022-07-27T03:43:06.426Z,74.54
2022-07-27T03:44:06.446Z,74.88
2022-07-27T03:45:06.389Z,75.18
2022-07-27T03:46:06.432Z,75.28
2022-07-27T03:47:06.556Z,75.59
2022-07-27T03:48:06.450Z,75.79
2022-07-27T03:49:14.237Z,76.43
2022-07-27T03:50:07.321Z,76.43
2022-07-27T03:51:06.539Z,76.74
2022-07-27T03:52:06.385Z,76.74
2022-07-27T03:53:06.495Z,76.94
2022-07-27T03:54:06.275Z,77.04
2022-07-27T03:55:06.309Z,77.14
2022-07-27T03:56:06.276Z,77.18
2022-07-27T03:57:06.225Z,77.18
2022-07-27T03:58:06.223Z,77.38
2022-07-27T03:59:06.203Z,77.38
2022-07-27T04:00:06.193Z,76.94
2022-07-27T04:01:06.514Z,76.84
2022-07-27T04:02:06.301Z,76.94
2022-07-27T04:03:06.153Z,76.74
2022-07-27T04:04:06.234Z,76.64
2022-07-27T04:05:06.132Z,76.43
2022-07-27T04:06:06.116Z,76.43
2022-07-27T04:07:06.116Z,76.54
2022-07-27T04:08:06.096Z,76.43
2022-07-27T04:09:12.364Z,76.43
2022-07-27T04:10:07.081Z,76.13
2022-07-27T04:11:06.215Z,76.03
2022-07-27T04:12:06.139Z,76.09
2022-07-27T04:13:06.145Z,75.89
2022-07-27T04:14:06.048Z,75.79
2022-07-27T04:15:06.084Z,75.89
2022-07-27T04:16:06.182Z,75.69
2022-07-27T04:17:06.061Z,75.69
2022-07-27T04:18:06.097Z,75.59
2022-07-27T04:19:05.979Z,75.49
2022-07-27T04:20:06.172Z,75.69
2022-07-27T04:21:07.108Z,75.59
2022-07-27T04:22:06.137Z,75.59
2022-07-27T04:23:06.014Z,75.69
2022-07-27T04:24:06.198Z,75.69
2022-07-27T04:25:05.919Z,75.69
2022-07-27T04:26:05.899Z,75.59
2022-07-27T04:27:05.966Z,75.69
2022-07-27T04:28:05.903Z,75.49
2022-07-27T04:29:05.930Z,75.49
2022-07-27T04:30:09.387Z,75.69
2022-07-27T04:31:05.910Z,75.59
2022-07-27T04:32:05.862Z,75.69
2022-07-27T04:33:05.831Z,75.55
2022-07-27T04:34:05.878Z,75.49
2022-07-27T04:35:05.811Z,75.65
2022-07-27T04:36:05.792Z,75.85
2022-07-27T04:37:05.792Z,75.96
2022-07-27T04:38:05.773Z,76.16
2022-07-27T04:39:05.772Z,76.26
2022-07-27T04:40:06.119Z,76.26
2022-07-27T04:41:05.813Z,76.36
2022-07-27T04:42:05.808Z,76.46
2022-07-27T04:43:05.776Z,76.56
2022-07-27T04:44:05.818Z,76.46
2022-07-27T04:45:05.703Z,76.50
2022-07-27T04:46:05.800Z,76.60
2022-07-27T04:47:05.694Z,76.70
2022-07-27T04:48:05.705Z,76.80
2022-07-27T04:49:05.686Z,76.90
2022-07-27T04:50:05.678Z,76.90
2022-07-27T04:51:05.724Z,77.11
2022-07-27T04:52:05.637Z,77.21
2022-07-27T04:53:05.738Z,77.41
2022-07-27T04:54:05.610Z,77.92
2022-07-27T04:55:05.587Z,77.92
2022-07-27T04:56:05.584Z,78.22
2022-07-27T04:57:05.721Z,78.33
2022-07-27T04:58:05.560Z,78.53
2022-07-27T04:59:05.549Z,78.53
2022-07-27T05:00:05.539Z,78.63
2022-07-27T05:01:05.553Z,78.63
2022-07-27T05:02:05.553Z,78.73
2022-07-27T05:03:05.499Z,78.83
2022-07-27T05:04:05.588Z,78.83
2022-07-27T05:05:05.480Z,78.73
2022-07-27T05:06:05.469Z,78.73
2022-07-27T05:07:05.492Z,78.93
2022-07-27T05:08:05.451Z,79.24
2022-07-27T05:09:05.441Z,79.54
2022-07-27T05:10:05.430Z,79.60
2022-07-27T05:11:05.419Z,79.50
2022-07-27T05:12:05.430Z,78.89
2022-07-27T05:13:07.367Z,78.79
2022-07-27T05:14:05.392Z,78.79
2022-07-27T05:15:05.381Z,78.59
2022-07-27T05:16:05.423Z,78.35
2022-07-27T05:17:05.352Z,78.25
2022-07-27T05:18:05.366Z,77.84
2022-07-27T05:19:05.342Z,77.44
2022-07-27T05:20:05.315Z,77.14
2022-07-27T05:21:05.331Z,77.10
2022-07-27T05:22:05.293Z,77.10
2022-07-27T05:23:05.335Z,76.90
2022-07-27T05:24:05.293Z,76.90
2022-07-27T05:25:05.263Z,77.40
2022-07-27T05:26:05.298Z,77.10
2022-07-27T05:27:05.233Z,76.76
2022-07-27T05:28:05.235Z,76.76
2022-07-27T05:29:05.227Z,76.56
2022-07-27T05:30:05.232Z,76.66
2022-07-27T05:31:05.198Z,76.66
2022-07-27T05:32:05.288Z,76.76
2022-07-27T05:33:05.189Z,76.76
2022-07-27T05:34:05.190Z,76.66
2022-07-27T05:35:05.156Z,76.46
2022-07-27T05:36:07.739Z,76.26
2022-07-27T05:37:05.129Z,76.26
2022-07-27T05:38:05.147Z,76.12
2022-07-27T05:39:06.447Z,75.92
2022-07-27T05:40:05.121Z,76.12
2022-07-27T05:41:05.088Z,75.71
2022-07-27T05:42:05.080Z,75.61
2022-07-27T05:43:05.078Z,75.21
2022-07-27T05:44:05.196Z,74.90
2022-07-27T05:45:05.108Z,75.10
2022-07-27T05:46:05.132Z,75.01
2022-07-27T05:47:06.150Z,74.70
2022-07-27T05:48:05.034Z,74.70
2022-07-27T05:49:05.091Z,74.50
2022-07-27T05:50:05.003Z,74.60
2022-07-27T05:51:05.022Z,74.90
2022-07-27T05:52:04.971Z,74.30
2022-07-27T05:53:04.962Z,74.70
2022-07-27T05:54:04.953Z,74.50
2022-07-27T05:55:04.938Z,74.70
2022-07-27T05:56:04.932Z,74.19
2022-07-27T05:57:04.921Z,74.60
2022-07-27T05:58:04.950Z,72.64
2022-07-27T05:59:07.320Z,72.34
2022-07-27T06:00:04.891Z,73.15
2022-07-27T06:01:04.929Z,73.75
2022-07-27T06:02:04.863Z,74.16
2022-07-27T06:03:04.928Z,74.16
2022-07-27T06:04:04.976Z,72.14
2022-07-27T06:05:04.825Z,72.11
2022-07-27T06:06:04.838Z,72.00
2022-07-27T06:07:04.805Z,72.41
2022-07-27T06:08:04.825Z,72.21
2022-07-27T06:09:04.786Z,71.87
2022-07-27T06:10:05.297Z,71.57
2022-07-27T06:11:04.767Z,70.02
2022-07-27T06:12:04.777Z,69.72
2022-07-27T06:13:04.739Z,69.42
2022-07-27T06:14:04.748Z,68.77
2022-07-27T06:15:04.718Z,69.68
2022-07-27T06:16:04.949Z,69.99
2022-07-27T06:17:04.702Z,70.26
2022-07-27T06:18:04.812Z,70.36
2022-07-27T06:19:04.681Z,69.82
2022-07-27T06:20:04.672Z,68.18
2022-07-27T06:21:04.679Z,66.94
2022-07-27T06:22:04.651Z,67.64
2022-07-27T06:23:07.949Z,67.00
2022-07-27T06:24:04.641Z,66.27
2022-07-27T06:25:04.604Z,65.67
2022-07-27T06:26:04.623Z,65.33
2022-07-27T06:27:04.593Z,65.03
2022-07-27T06:28:04.701Z,64.40
2022-07-27T06:29:10.485Z,63.09
2022-07-27T06:30:05.586Z,64.00
2022-07-27T06:31:04.573Z,62.26
2022-07-27T06:32:04.674Z,62.46
2022-07-27T06:33:04.862Z,62.83
2022-07-27T06:34:08.216Z,62.03
2022-07-27T06:35:05.504Z,62.30
2022-07-27T06:36:04.534Z,61.70
2022-07-27T06:37:04.478Z,60.49
2022-07-27T06:38:04.477Z,60.29
2022-07-27T06:39:04.477Z,60.69
2022-07-27T06:40:04.457Z,61.10
2022-07-27T06:41:04.448Z,60.69
2022-07-27T06:42:04.471Z,60.16
2022-07-27T06:43:04.438Z,60.66
2022-07-27T06:44:04.473Z,60.06
2022-07-27T06:45:04.412Z,59.77
2022-07-27T06:46:04.484Z,59.86
2022-07-27T06:47:04.421Z,60.66
2022-07-27T06:48:04.433Z,60.66
2022-07-27T06:49:04.413Z,60.97
2022-07-27T06:50:04.378Z,59.86
2022-07-27T06:51:04.389Z,60.57
2022-07-27T06:52:04.357Z,59.99
2022-07-27T06:53:04.329Z,60.19
2022-07-27T06:54:04.348Z,60.89
2022-07-27T06:55:04.340Z,60.60
2022-07-27T06:56:04.316Z,60.80
2022-07-27T06:57:04.274Z,61.00
2022-07-27T06:58:04.283Z,60.80
2022-07-27T06:59:04.265Z,61.00
2022-07-27T07:00:04.240Z,61.70
2022-07-27T07:01:04.307Z,61.10
2022-07-27T07:02:04.236Z,61.50
2022-07-27T07:03:04.219Z,61.30
2022-07-27T07:04:04.260Z,59.99
2022-07-27T07:05:04.204Z,59.59
2022-07-27T07:06:04.276Z,60.39
2022-07-27T07:07:07.291Z,60.77
2022-07-27T07:08:04.216Z,60.57
2022-07-27T07:09:04.169Z,61.34
2022-07-27T07:10:04.130Z,59.03
2022-07-27T07:11:04.122Z,58.63
2022-07-27T07:12:04.130Z,60.03
2022-07-27T07:13:04.113Z,60.74
2022-07-27T07:14:04.290Z,60.24
2022-07-27T07:15:04.084Z,59.94
2022-07-27T07:16:04.163Z,59.11
2022-07-27T07:17:04.063Z,58.61
2022-07-27T07:18:04.154Z,59.00
2022-07-27T07:19:04.053Z,58.61
2022-07-27T07:20:04.063Z,59.23
2022-07-27T07:21:04.016Z,59.31
2022-07-27T07:22:04.072Z,59.41
2022-07-27T07:23:04.001Z,59.11
2022-07-27T07:24:04.016Z,58.50
2022-07-27T07:25:03.979Z,58.70
2022-07-27T07:26:03.957Z,59.11
2022-07-27T07:27:03.968Z,59.00
2022-07-27T07:28:03.996Z,59.00
2022-07-27T07:29:03.948Z,58.91
2022-07-27T07:30:03.961Z,59.31
2022-07-27T07:31:03.995Z,59.18
2022-07-27T07:32:03.918Z,58.48
2022-07-27T07:33:03.891Z,58.98
2022-07-27T07:34:03.882Z,57.98
2022-07-27T07:35:03.879Z,57.37
2022-07-27T07:36:14.191Z,58.00
2022-07-27T07:37:04.861Z,58.23
2022-07-27T07:38:03.863Z,58.79
2022-07-27T07:39:03.845Z,61.40
2022-07-27T07:40:25.339Z,60.69
2022-07-27T07:41:04.806Z,59.49
2022-07-27T07:42:03.825Z,60.60
2022-07-27T07:43:03.783Z,58.69
2022-07-27T07:44:03.845Z,59.92
2022-07-27T07:45:03.769Z,60.39
2022-07-27T07:46:03.872Z,59.62
2022-07-27T07:47:03.879Z,59.82
2022-07-27T07:48:03.728Z,60.12
2022-07-27T07:49:03.782Z,60.02
2022-07-27T07:50:03.706Z,60.12
2022-07-27T07:51:03.701Z,61.13
2022-07-27T07:52:03.754Z,58.92
2022-07-27T07:53:03.681Z,58.81
2022-07-27T07:54:03.724Z,58.81
2022-07-27T07:55:03.661Z,57.31
2022-07-27T07:56:03.653Z,57.71
2022-07-27T07:57:03.633Z,58.09
2022-07-27T07:58:03.723Z,55.08
2022-07-27T07:59:03.645Z,54.17
2022-07-27T08:00:03.657Z,53.77
2022-07-27T08:01:03.593Z,54.47
2022-07-27T08:02:03.603Z,56.30
2022-07-27T08:03:03.725Z,56.41
2022-07-27T08:04:03.595Z,55.00
2022-07-27T08:05:03.557Z,57.51
2022-07-27T08:06:03.548Z,55.38
2022-07-27T08:07:03.537Z,55.45
2022-07-27T08:08:03.572Z,55.13
2022-07-27T08:09:03.583Z,56.20
2022-07-27T08:10:03.537Z,53.74
2022-07-27T08:11:03.501Z,54.32
2022-07-27T08:12:03.501Z,52.72
2022-07-27T08:13:03.478Z,53.34
2022-07-27T08:14:03.482Z,53.72
2022-07-27T08:15:03.471Z,53.12
2022-07-27T08:16:03.533Z,52.32
2022-07-27T08:17:03.442Z,53.62
2022-07-27T08:18:03.429Z,52.62
2022-07-27T08:19:03.463Z,53.05
2022-07-27T08:20:03.449Z,53.85
2022-07-27T08:21:03.404Z,53.64
2022-07-27T08:22:03.376Z,54.17
2022-07-27T08:23:03.398Z,54.77
2022-07-27T08:24:03.367Z,55.00
2022-07-27T08:25:03.355Z,54.02
2022-07-27T08:26:07.715Z,55.95
2022-07-27T08:27:03.346Z,54.97
2022-07-27T08:28:03.386Z,57.08
2022-07-27T08:29:13.370Z,56.28
2022-07-27T08:30:04.329Z,55.85
2022-07-27T08:31:15.275Z,54.45
2022-07-27T08:32:05.879Z,55.05
2022-07-27T08:33:03.271Z,54.85
2022-07-27T08:34:03.271Z,54.85
2022-07-27T08:35:03.261Z,54.05
2022-07-27T08:36:03.264Z,55.43
2022-07-27T08:37:03.224Z,54.90
2022-07-27T08:38:03.281Z,54.00
2022-07-27T08:39:03.206Z,54.30
2022-07-27T08:40:38.848Z,52.72
2022-07-27T08:41:04.194Z,51.92
2022-07-27T08:42:03.213Z,51.84
2022-07-27T08:43:03.176Z,53.14
2022-07-27T08:44:03.175Z,53.77
2022-07-27T08:45:03.169Z,53.27
2022-07-27T08:46:03.231Z,54.93
2022-07-27T08:47:03.223Z,54.33
2022-07-27T08:48:03.190Z,55.60
2022-07-27T08:49:03.167Z,54.17
2022-07-27T08:50:03.111Z,53.34
2022-07-27T08:51:03.092Z,53.82
2022-07-27T08:52:03.077Z,51.92
2022-07-27T08:53:03.072Z,53.14
2022-07-27T08:54:03.061Z,54.07
2022-07-27T08:55:03.052Z,55.52
2022-07-27T08:56:03.057Z,52.97
2022-07-27T08:57:03.023Z,51.44
2022-07-27T08:58:04.021Z,51.62
2022-07-27T08:59:03.013Z,50.22
2022-07-27T09:00:03.058Z,51.14
2022-07-27T09:01:02.995Z,51.17
2022-07-27T09:02:03.695Z,52.37
2022-07-27T09:03:03.084Z,51.97
2022-07-27T09:04:03.004Z,52.77
2022-07-27T09:05:02.966Z,51.44
2022-07-27T09:06:02.990Z,51.62
2022-07-27T09:07:02.916Z,50.32
2022-07-27T09:08:02.962Z,50.82
2022-07-27T09:09:02.908Z,52.84
2022-07-27T09:10:02.930Z,53.17
2022-07-27T09:11:02.899Z,54.80
2022-07-27T09:12:02.928Z,54.65
2022-07-27T09:13:02.862Z,54.88
2022-07-27T09:14:02.877Z,56.10
2022-07-27T09:15:02.877Z,55.93
2022-07-27T09:16:20.047Z,55.96
2022-07-27T09:17:46.660Z,54.85
2022-07-27T09:18:03.941Z,55.46
2022-07-27T09:19:02.815Z,55.79
2022-07-27T09:20:02.822Z,55.79
2022-07-27T09:21:02.783Z,55.08
2022-07-27T09:22:03.028Z,56.99
2022-07-27T09:23:02.766Z,56.49
2022-07-27T09:24:02.825Z,56.69
2022-07-27T09:25:02.744Z,56.79
2022-07-27T09:26:08.596Z,55.91
2022-07-27T09:27:03.719Z,55.21
2022-07-27T09:28:02.717Z,54.60
2022-07-27T09:29:02.689Z,54.50
2022-07-27T09:30:02.768Z,55.51
2022-07-27T09:31:02.793Z,56.38
2022-07-27T09:32:02.675Z,55.91
2022-07-27T09:33:02.659Z,55.85
2022-07-27T09:34:02.781Z,53.80
2022-07-27T09:35:02.633Z,51.37
2022-07-27T09:36:02.702Z,52.37
2022-07-27T09:37:02.611Z,52.07
2022-07-27T09:38:02.712Z,52.09
2022-07-27T09:39:03.179Z,52.19
2022-07-27T09:40:02.595Z,52.82
2022-07-27T09:41:02.614Z,53.34
2022-07-27T09:42:03.038Z,52.84
2022-07-27T09:43:17.363Z,52.26
2022-07-27T09:45:03.526Z,52.42
2022-07-27T09:46:02.963Z,53.25
2022-07-27T09:47:02.526Z,53.25
2022-07-27T09:48:02.518Z,53.67
2022-07-27T09:49:02.576Z,53.88
2022-07-27T09:50:02.537Z,54.58
2022-07-27T09:51:05.504Z,54.75
2022-07-27T09:52:03.704Z,56.54
2022-07-27T09:53:19.684Z,53.22
2022-07-27T09:54:03.464Z,53.22
2022-07-27T09:55:02.441Z,52.74
2022-07-27T09:56:02.467Z,53.85
2022-07-27T09:57:02.431Z,53.85
2022-07-27T09:58:02.571Z,53.65
2022-07-27T09:59:02.390Z,54.96
2022-07-27T10:00:02.424Z,53.85
2022-07-27T10:01:02.388Z,53.85
2022-07-27T10:02:02.454Z,54.55
2022-07-27T10:03:02.344Z,53.70
2022-07-27T10:04:02.498Z,53.42
2022-07-27T10:05:02.458Z,54.05
2022-07-27T10:06:02.328Z,52.12
2022-07-27T10:07:04.680Z,51.04
2022-07-27T10:08:02.326Z,51.46
2022-07-27T10:09:02.277Z,51.12
2022-07-27T10:10:02.278Z,52.94
2022-07-27T10:11:04.077Z,53.37
2022-07-27T10:12:03.250Z,54.20
2022-07-27T10:13:02.237Z,55.73
2022-07-27T10:14:03.020Z,55.63
2022-07-27T10:15:02.222Z,56.56
2022-07-27T10:16:02.385Z,55.83
2022-07-27T10:17:02.222Z,54.83
2022-07-27T10:18:06.459Z,55.66
2022-07-27T10:19:02.242Z,55.55
2022-07-27T10:20:03.201Z,54.75
2022-07-27T10:21:02.175Z,54.75
2022-07-27T10:22:02.250Z,55.05
2022-07-27T10:23:02.133Z,55.66
2022-07-27T10:24:02.169Z,55.96
2022-07-27T10:25:02.115Z,55.43
2022-07-27T10:26:02.115Z,55.13
2022-07-27T10:27:02.094Z,53.72
2022-07-27T10:28:02.118Z,54.93
2022-07-27T10:29:02.076Z,54.43
2022-07-27T10:30:02.081Z,53.42
2022-07-27T10:31:02.180Z,53.72
2022-07-27T10:32:02.039Z,53.62
2022-07-27T10:33:02.028Z,53.59
2022-07-27T10:34:02.672Z,54.40
2022-07-27T10:35:02.011Z,51.89
2022-07-27T10:36:02.100Z,53.20
2022-07-27T10:37:01.989Z,54.70
2022-07-27T10:38:02.018Z,52.47
2022-07-27T10:39:01.999Z,51.72
2022-07-27T10:40:01.994Z,50.76
2022-07-27T10:41:01.962Z,48.36
2022-07-27T10:42:02.000Z,49.24
2022-07-27T10:43:01.924Z,48.22
2022-07-27T10:44:01.933Z,48.54
2022-07-27T10:45:01.923Z,48.96
2022-07-27T10:46:03.068Z,51.01
2022-07-27T10:47:01.891Z,51.54
2022-07-27T10:48:01.989Z,53.07
2022-07-27T10:49:01.952Z,53.37
2022-07-27T10:50:01.856Z,52.09
2022-07-27T10:51:01.868Z,52.49
2022-07-27T10:52:01.908Z,53.00
2022-07-27T10:53:01.818Z,52.29
2022-07-27T10:54:17.294Z,52.09
2022-07-27T10:55:02.798Z,53.02
2022-07-27T10:56:01.818Z,52.92
2022-07-27T10:57:01.785Z,52.32
2022-07-27T10:58:01.769Z,52.72
2022-07-27T10:59:01.768Z,52.12
2022-07-27T11:00:12.437Z,53.92
2022-07-27T11:01:02.798Z,53.50
2022-07-27T11:02:01.894Z,52.69
2022-07-27T11:03:01.713Z,51.29
2022-07-27T11:04:01.821Z,51.89
2022-07-27T11:05:01.694Z,52.26
2022-07-27T11:06:21.765Z,52.47
2022-07-27T11:07:24.098Z,51.87
2022-07-27T11:08:35.711Z,52.34
2022-07-27T11:10:04.463Z,50.39
2022-07-27T11:11:01.650Z,50.24
2022-07-27T11:12:01.638Z,48.84
2022-07-27T11:13:09.662Z,48.84
2022-07-27T11:14:02.699Z,49.96
2022-07-27T11:15:01.630Z,49.37
2022-07-27T11:16:22.958Z,49.44
2022-07-27T11:17:48.609Z,47.19
2022-07-27T11:18:04.927Z,45.87
2022-07-27T11:19:01.726Z,46.17
2022-07-27T11:20:01.553Z,45.57
2022-07-27T11:21:04.683Z,45.87
2022-07-27T11:22:04.515Z,46.19
2022-07-27T11:24:02.596Z,44.37
2022-07-27T11:25:01.492Z,45.89
2022-07-27T11:26:01.507Z,43.90
2022-07-27T11:27:01.474Z,44.92
2022-07-27T11:28:02.581Z,46.12
2022-07-27T11:29:01.455Z,45.64
2022-07-27T11:30:01.447Z,45.64
2022-07-27T11:31:03.560Z,48.02
2022-07-27T11:32:01.521Z,47.27
2022-07-27T11:33:01.417Z,45.75
2022-07-27T11:34:01.497Z,44.05
2022-07-27T11:35:01.398Z,46.65
2022-07-27T11:36:01.422Z,46.15
2022-07-27T11:37:01.382Z,45.73
2022-07-27T11:38:01.388Z,46.50
2022-07-27T11:39:01.371Z,44.19
2022-07-27T11:40:04.018Z,44.11
2022-07-27T11:41:16.885Z,44.85
2022-07-27T11:42:08.352Z,46.30
2022-07-27T11:43:02.326Z,47.92
2022-07-27T11:44:01.325Z,47.04
2022-07-27T11:45:01.303Z,48.04
2022-07-27T11:46:01.323Z,48.16
2022-07-27T11:47:02.111Z,48.26
2022-07-27T11:48:01.276Z,48.57
2022-07-27T11:49:09.524Z,48.38
2022-07-27T11:50:02.408Z,49.08
2022-07-27T11:51:01.248Z,48.99
2022-07-27T11:52:01.248Z,48.79
2022-07-27T11:53:01.944Z,49.29
2022-07-27T11:54:01.219Z,50.09
2022-07-27T11:55:01.201Z,49.89
2022-07-27T11:56:01.201Z,50.37
2022-07-27T11:57:01.203Z,50.87
2022-07-27T11:58:01.171Z,48.16
2022-07-27T11:59:01.645Z,46.06
2022-07-27T12:00:01.153Z,48.16
2022-07-27T12:01:01.143Z,48.04
2022-07-27T12:02:01.225Z,47.24
2022-07-27T12:03:01.123Z,47.44
2022-07-27T12:04:01.129Z,47.54
2022-07-27T12:05:03.178Z,47.54
2022-07-27T12:06:01.098Z,46.74
2022-07-27T12:07:01.101Z,47.66
2022-07-27T12:08:01.078Z,47.86
2022-07-27T12:09:01.056Z,48.64
2022-07-27T12:10:01.048Z,47.74
2022-07-27T12:11:01.038Z,49.44
2022-07-27T12:12:01.057Z,48.60
2022-07-27T12:13:01.018Z,47.49
2022-07-27T12:14:01.009Z,47.19
2022-07-27T12:15:00.999Z,47.61
2022-07-27T12:16:00.989Z,48.61
2022-07-27T12:17:01.033Z,47.74
2022-07-27T12:18:00.971Z,48.64
2022-07-27T12:19:00.963Z,48.07
2022-07-27T12:20:00.951Z,48.07
2022-07-27T12:21:00.932Z,49.29
2022-07-27T12:22:00.933Z,47.99
2022-07-27T12:23:00.917Z,47.88
2022-07-27T12:24:00.914Z,47.91
2022-07-27T12:25:00.893Z,49.21
2022-07-27T12:26:00.886Z,48.79
2022-07-27T12:27:05.980Z,46.98
2022-07-27T12:28:01.865Z,45.58
2022-07-27T12:29:00.857Z,44.90
2022-07-27T12:30:00.847Z,46.50
2022-07-27T12:31:00.870Z,47.08
2022-07-27T12:32:00.838Z,47.28
2022-07-27T12:33:00.817Z,47.06
2022-07-27T12:34:06.067Z,45.06
2022-07-27T12:35:01.795Z,44.35
2022-07-27T12:36:00.782Z,44.96
2022-07-27T12:37:00.779Z,45.66
2022-07-27T12:38:00.760Z,46.56
2022-07-27T12:39:00.752Z,48.26
2022-07-27T12:40:00.739Z,47.16
2022-07-27T12:41:01.451Z,47.76
2022-07-27T12:42:00.743Z,46.74
2022-07-27T12:43:00.702Z,46.94
2022-07-27T12:44:00.711Z,45.74
2022-07-27T12:45:00.685Z,46.46
2022-07-27T12:46:00.738Z,48.36
2022-07-27T12:47:00.684Z,48.07
2022-07-27T12:48:00.659Z,47.36
2022-07-27T12:49:00.720Z,48.36
2022-07-27T12:50:00.636Z,48.14
2022-07-27T12:51:00.616Z,49.44
2022-07-27T12:52:00.618Z,48.74
2022-07-27T12:53:00.608Z,48.54
2022-07-27T12:54:00.598Z,50.37
2022-07-27T12:55:00.577Z,50.96